Talara, Talara International Airport (SPYL)

NameTalara International Airport
CityTalara
CountryPeru
ICAOSPYL
IATATYL
Altitude86 m
CoordinatesGoogle Map
Live Air TrafficLiveATC.net
METARSPYL 191700Z 26010KT CAVOK 28/21 Q1013 RMK BIRD HAZARD RWY 17/35 PP000
2019-03-19 17:00:00 Wind: West-Southwest (260°) 5.14 m/s - Visibility: > 10000 m - Weather: CAVOK - Temperature: 28 °C - Dew point: 21 °C - Humidity: 65.8% - Pressure: 1013 hPa

Sorry, no flights used the airport in this database.